createdAt,value
2023-04-23T00:01:49.000Z,8.70
2023-04-23T00:04:19.242Z,8.70
2023-04-23T00:06:47.321Z,8.80
2023-04-23T00:09:16.094Z,8.90
2023-04-23T00:11:42.925Z,9.10
2023-04-23T00:14:10.644Z,9.10
2023-04-23T00:16:38.926Z,8.70
2023-04-23T00:19:05.412Z,8.60
2023-04-23T00:21:31.956Z,8.50
2023-04-23T00:23:58.436Z,8.50
2023-04-23T00:26:25.056Z,8.50
2023-04-23T00:28:51.548Z,8.40
2023-04-23T00:31:18.487Z,8.40
2023-04-23T00:33:44.970Z,8.40
2023-04-23T00:36:11.465Z,8.20
2023-04-23T00:38:37.979Z,8.00
2023-04-23T00:41:05.381Z,8.00
2023-04-23T00:43:33.039Z,8.10
2023-04-23T00:46:00.111Z,8.10
2023-04-23T00:48:28.125Z,8.20
2023-04-23T00:51:05.350Z,8.20
2023-04-23T00:53:33.300Z,8.00
2023-04-23T00:56:04.667Z,8.00
2023-04-23T00:58:33.170Z,7.90
2023-04-23T01:01:02.090Z,7.80
2023-04-23T01:03:29.169Z,7.60
2023-04-23T01:05:57.184Z,7.50
2023-04-23T01:08:25.419Z,7.50
2023-04-23T01:10:53.654Z,7.50
2023-04-23T01:13:21.614Z,7.40
2023-04-23T01:15:48.130Z,7.40
2023-04-23T01:18:14.737Z,7.50
2023-04-23T01:20:42.444Z,7.60
2023-04-23T01:23:08.955Z,7.60
2023-04-23T01:25:35.631Z,7.70
2023-04-23T01:28:02.266Z,7.70
2023-04-23T01:30:30.303Z,7.60
2023-04-23T01:32:57.991Z,7.60
2023-04-23T01:35:25.458Z,7.60
2023-04-23T01:37:56.642Z,7.60
2023-04-23T01:40:23.198Z,7.60
2023-04-23T01:42:50.372Z,7.60
2023-04-23T01:45:19.613Z,7.50
2023-04-23T01:47:47.104Z,7.50
2023-04-23T01:50:14.608Z,7.50
2023-04-23T01:52:41.744Z,7.50
2023-04-23T01:55:08.892Z,7.50
2023-04-23T01:57:35.970Z,7.50
2023-04-23T02:00:10.478Z,7.60
2023-04-23T02:02:39.091Z,7.70
2023-04-23T02:05:12.330Z,7.70
2023-04-23T02:07:39.542Z,7.70
2023-04-23T02:10:07.583Z,7.70
2023-04-23T02:12:36.428Z,7.60
2023-04-23T02:15:05.803Z,7.50
2023-04-23T02:17:32.596Z,7.60
2023-04-23T02:19:59.131Z,7.60
2023-04-23T02:22:25.829Z,7.50
2023-04-23T02:24:53.861Z,7.40
2023-04-23T02:27:21.330Z,7.30
2023-04-23T02:29:49.217Z,7.30
2023-04-23T02:32:16.014Z,7.40
2023-04-23T02:34:43.110Z,7.40
2023-04-23T02:37:09.815Z,7.40
2023-04-23T02:39:38.209Z,7.20
2023-04-23T02:42:04.782Z,7.10
2023-04-23T02:44:31.304Z,7.20
2023-04-23T02:46:57.920Z,7.20
2023-04-23T02:49:25.372Z,7.10
2023-04-23T02:51:51.877Z,7.10
2023-04-23T02:54:18.503Z,7.20
2023-04-23T02:56:45.111Z,7.40
2023-04-23T02:59:11.653Z,7.30
2023-04-23T03:01:38.193Z,7.30
2023-04-23T03:04:04.994Z,7.40
2023-04-23T03:06:33.687Z,7.40
2023-04-23T03:09:00.279Z,7.40
2023-04-23T03:11:26.831Z,7.50
2023-04-23T03:13:53.329Z,7.60
2023-04-23T03:16:19.827Z,7.60
2023-04-23T03:18:46.379Z,7.50
2023-04-23T03:21:12.880Z,7.60
2023-04-23T03:23:39.714Z,7.70
2023-04-23T03:26:06.220Z,7.80
2023-04-23T03:28:32.921Z,7.90
2023-04-23T03:30:59.585Z,7.90
2023-04-23T03:33:26.109Z,7.90
2023-04-23T03:35:52.596Z,8.00
2023-04-23T03:38:19.087Z,8.00
2023-04-23T03:40:45.577Z,7.90
2023-04-23T03:43:12.102Z,7.90
2023-04-23T03:45:38.591Z,8.00
2023-04-23T03:48:05.135Z,7.90
2023-04-23T03:50:33.714Z,7.90
2023-04-23T03:53:00.755Z,8.10
2023-04-23T03:55:27.252Z,8.00
2023-04-23T03:57:53.750Z,8.10
2023-04-23T04:00:20.837Z,8.10
2023-04-23T04:02:47.511Z,8.10
2023-04-23T04:05:14.173Z,8.20
2023-04-23T04:07:40.777Z,8.30
2023-04-23T04:10:07.814Z,8.30
2023-04-23T04:12:34.348Z,8.30
2023-04-23T04:15:05.211Z,8.40
2023-04-23T04:17:31.722Z,8.50
2023-04-23T04:19:58.219Z,8.50
2023-04-23T04:22:24.758Z,8.60
2023-04-23T04:24:51.961Z,8.60
2023-04-23T04:27:18.865Z,8.70
2023-04-23T04:29:45.386Z,8.60
2023-04-23T04:32:12.804Z,8.60
2023-04-23T04:34:39.702Z,8.70
2023-04-23T04:37:06.982Z,8.80
2023-04-23T04:39:33.498Z,8.80
2023-04-23T04:42:02.096Z,9.00
2023-04-23T04:44:29.692Z,9.00
2023-04-23T04:46:56.374Z,9.10
2023-04-23T04:49:23.140Z,9.20
2023-04-23T04:51:49.628Z,9.30
2023-04-23T04:54:16.134Z,9.30
2023-04-23T04:56:42.641Z,9.40
2023-04-23T04:59:09.100Z,9.50
2023-04-23T05:01:36.324Z,9.60
2023-04-23T05:04:03.348Z,9.70
2023-04-23T05:06:31.561Z,9.80
2023-04-23T05:08:58.038Z,9.80
2023-04-23T05:11:24.534Z,9.90
2023-04-23T05:13:51.157Z,10.00
2023-04-23T05:16:18.522Z,10.10
2023-04-23T05:18:45.746Z,10.30
2023-04-23T05:21:12.270Z,10.30
2023-04-23T05:23:38.751Z,10.40
2023-04-23T05:26:05.320Z,10.50
2023-04-23T05:28:31.869Z,10.50
2023-04-23T05:30:58.634Z,10.50
2023-04-23T05:33:30.593Z,10.70
2023-04-23T05:35:59.816Z,10.90
2023-04-23T05:38:26.356Z,11.10
2023-04-23T05:40:52.912Z,11.20
2023-04-23T05:43:19.464Z,11.60
2023-04-23T05:45:45.978Z,11.90
2023-04-23T05:48:12.514Z,12.30
2023-04-23T05:50:39.044Z,12.60
2023-04-23T05:53:05.759Z,13.00
2023-04-23T05:55:32.282Z,13.20
2023-04-23T05:57:58.752Z,13.30
2023-04-23T06:00:25.239Z,13.40
2023-04-23T06:02:51.774Z,13.40
2023-04-23T06:05:18.584Z,13.40
2023-04-23T06:07:45.309Z,13.50
2023-04-23T06:10:12.397Z,13.50
2023-04-23T06:12:39.449Z,13.40
2023-04-23T06:15:08.203Z,13.30
2023-04-23T06:17:35.680Z,13.40
2023-04-23T06:20:04.274Z,13.50
2023-04-23T06:22:31.775Z,13.50
2023-04-23T06:24:58.240Z,13.40
2023-04-23T06:27:26.248Z,13.30
2023-04-23T06:29:52.750Z,13.30
2023-04-23T06:32:20.584Z,13.40
2023-04-23T06:35:00.118Z,13.40
2023-04-23T06:37:30.055Z,13.40
2023-04-23T06:39:57.853Z,13.60
2023-04-23T06:42:24.479Z,13.80
2023-04-23T06:44:51.142Z,13.90
2023-04-23T06:47:19.255Z,14.00
2023-04-23T06:49:45.760Z,14.10
2023-04-23T06:52:12.282Z,14.40
2023-04-23T06:54:38.823Z,14.90
2023-04-23T06:57:05.669Z,15.30
2023-04-23T06:59:32.162Z,15.70
2023-04-23T07:01:58.694Z,16.00
2023-04-23T07:04:25.329Z,16.00
2023-04-23T07:06:51.873Z,16.20
2023-04-23T07:09:18.362Z,16.40
2023-04-23T07:11:44.869Z,16.40
2023-04-23T07:14:11.467Z,16.40
2023-04-23T07:16:38.029Z,16.50
2023-04-23T07:19:04.521Z,16.40
2023-04-23T07:21:32.222Z,16.50
2023-04-23T07:24:08.083Z,16.80
2023-04-23T07:26:37.498Z,17.00
2023-04-23T07:29:07.021Z,17.30
2023-04-23T07:31:33.796Z,17.40
2023-04-23T07:34:00.573Z,17.50
2023-04-23T07:36:27.152Z,17.70
2023-04-23T07:38:53.679Z,17.80
2023-04-23T07:41:20.393Z,17.70
2023-04-23T07:43:46.953Z,17.80
2023-04-23T07:46:14.201Z,17.80
2023-04-23T07:48:40.751Z,17.80
2023-04-23T07:51:08.458Z,17.80
2023-04-23T07:53:35.075Z,17.70
2023-04-23T07:56:01.588Z,17.90
2023-04-23T07:58:28.101Z,18.10
2023-04-23T08:00:54.692Z,18.20
2023-04-23T08:03:23.476Z,18.30
2023-04-23T08:05:50.346Z,18.40
2023-04-23T08:08:16.882Z,18.40
2023-04-23T08:10:43.369Z,18.60
2023-04-23T08:13:10.357Z,18.70
2023-04-23T08:15:36.885Z,18.70
2023-04-23T08:18:04.319Z,18.90
2023-04-23T08:20:31.515Z,19.00
2023-04-23T08:22:58.055Z,19.00
2023-04-23T08:25:24.827Z,19.00
2023-04-23T08:27:51.715Z,19.00
2023-04-23T08:30:18.200Z,19.30
2023-04-23T08:32:49.488Z,19.50
2023-04-23T08:35:16.250Z,19.60
2023-04-23T08:37:42.766Z,19.60
2023-04-23T08:40:09.744Z,19.70
2023-04-23T08:43:00.785Z,19.70
2023-04-23T08:45:30.727Z,19.90
2023-04-23T08:48:02.409Z,20.00
2023-04-23T08:50:30.269Z,20.10
2023-04-23T08:52:57.690Z,20.30
2023-04-23T08:55:25.428Z,20.50
2023-04-23T08:57:52.171Z,20.60
2023-04-23T09:00:22.251Z,20.60
2023-04-23T09:02:49.475Z,20.60
2023-04-23T09:05:16.345Z,20.60
2023-04-23T09:07:43.401Z,20.50
2023-04-23T09:10:12.190Z,20.60
2023-04-23T09:12:42.283Z,20.50
2023-04-23T09:15:10.305Z,20.70
2023-04-23T09:17:45.245Z,20.80
2023-04-23T09:20:13.940Z,20.90
2023-04-23T09:22:54.411Z,21.10
2023-04-23T09:25:24.445Z,21.30
2023-04-23T09:27:52.471Z,21.30
2023-04-23T09:30:19.681Z,21.40
2023-04-23T09:32:47.251Z,21.40
2023-04-23T09:35:16.975Z,21.40
2023-04-23T09:37:49.329Z,21.50
2023-04-23T09:40:23.185Z,21.60
2023-04-23T09:42:55.100Z,21.80
2023-04-23T09:45:22.176Z,21.70
2023-04-23T09:47:57.554Z,21.40
2023-04-23T09:50:37.662Z,21.60
2023-04-23T09:53:05.905Z,21.60
2023-04-23T09:55:42.251Z,21.60
2023-04-23T09:58:14.765Z,21.80
2023-04-23T10:00:42.145Z,21.60
2023-04-23T10:03:10.473Z,21.40
2023-04-23T10:05:56.288Z,21.30
2023-04-23T10:08:28.240Z,21.40
2023-04-23T10:11:09.524Z,21.50
2023-04-23T10:13:46.593Z,21.60
2023-04-23T10:16:22.355Z,21.70
2023-04-23T10:18:53.316Z,21.80
2023-04-23T10:21:28.297Z,21.90
2023-04-23T10:24:01.456Z,21.70
2023-04-23T10:26:32.414Z,21.60
2023-04-23T10:29:02.081Z,21.50
2023-04-23T10:31:32.243Z,21.70
2023-04-23T10:34:01.167Z,21.70
2023-04-23T10:36:28.297Z,21.70
2023-04-23T10:38:59.755Z,21.60
2023-04-23T10:41:36.137Z,21.60
2023-04-23T10:44:05.040Z,21.40
2023-04-23T10:46:34.762Z,21.40
2023-04-23T10:49:15.545Z,21.50
2023-04-23T10:52:17.772Z,21.50
2023-04-23T10:54:59.110Z,21.70
2023-04-23T10:57:25.610Z,22.00
2023-04-23T10:59:55.255Z,22.10
2023-04-23T11:02:24.374Z,22.20
2023-04-23T11:04:57.395Z,22.30
2023-04-23T11:07:33.505Z,22.30
2023-04-23T11:10:13.615Z,22.30
2023-04-23T11:12:40.969Z,22.40
2023-04-23T11:15:14.557Z,22.50
2023-04-23T11:17:59.950Z,22.50
2023-04-23T11:20:26.476Z,22.50
2023-04-23T11:22:52.977Z,22.50
2023-04-23T11:25:26.087Z,22.70
2023-04-23T11:27:55.280Z,22.70
2023-04-23T11:30:25.277Z,22.90
2023-04-23T11:32:55.164Z,22.90
2023-04-23T11:35:27.691Z,23.20
2023-04-23T11:37:54.487Z,23.50
2023-04-23T11:40:21.786Z,23.50
2023-04-23T11:42:50.933Z,23.50
2023-04-23T11:45:19.957Z,23.40
2023-04-23T11:47:58.134Z,23.40
2023-04-23T11:50:35.518Z,23.30
2023-04-23T11:53:22.907Z,23.30
2023-04-23T11:55:49.778Z,23.10
2023-04-23T11:58:19.138Z,23.00
2023-04-23T12:00:45.795Z,22.90
2023-04-23T12:03:13.167Z,22.90
2023-04-23T12:05:43.532Z,22.90
2023-04-23T12:08:19.372Z,22.90
2023-04-23T12:10:54.704Z,22.90
2023-04-23T12:13:24.090Z,22.80
2023-04-23T12:15:55.714Z,22.80
2023-04-23T12:18:39.644Z,22.80
2023-04-23T12:21:13.969Z,22.80
2023-04-23T12:23:43.947Z,22.70
2023-04-23T12:26:15.663Z,22.60
2023-04-23T12:28:54.761Z,22.80
2023-04-23T12:31:29.308Z,22.80
2023-04-23T12:34:07.969Z,23.00
2023-04-23T12:36:37.700Z,23.00
2023-04-23T12:39:31.056Z,23.20
2023-04-23T12:42:06.298Z,23.30
2023-04-23T12:44:35.096Z,23.20
2023-04-23T12:47:05.156Z,23.10
2023-04-23T12:49:32.858Z,23.10
2023-04-23T12:52:01.642Z,23.00
2023-04-23T12:54:31.410Z,23.10
2023-04-23T12:56:59.510Z,23.10
2023-04-23T12:59:26.573Z,23.00
2023-04-23T13:01:53.210Z,23.10
2023-04-23T13:04:19.972Z,23.10
2023-04-23T13:06:46.574Z,23.00
2023-04-23T13:09:13.205Z,22.80
2023-04-23T13:11:40.828Z,22.60
2023-04-23T13:14:09.793Z,22.50
2023-04-23T13:16:36.310Z,22.50
2023-04-23T13:19:02.860Z,22.70
2023-04-23T13:21:29.359Z,22.70
2023-04-23T13:23:57.128Z,22.70
2023-04-23T13:26:23.838Z,22.60
2023-04-23T13:28:50.358Z,22.70
2023-04-23T13:31:16.939Z,22.70
2023-04-23T13:33:43.455Z,22.70
2023-04-23T13:36:09.974Z,22.60
2023-04-23T13:38:36.492Z,22.70
2023-04-23T13:41:02.987Z,22.70
2023-04-23T13:43:29.489Z,22.70
2023-04-23T13:45:56.096Z,22.90
2023-04-23T13:48:27.882Z,22.90
2023-04-23T13:50:55.411Z,23.00
2023-04-23T13:53:22.136Z,23.00
2023-04-23T13:55:48.652Z,23.10
2023-04-23T13:58:15.266Z,22.90
2023-04-23T14:00:42.893Z,22.90
2023-04-23T14:03:09.582Z,22.90
2023-04-23T14:05:36.295Z,22.70
2023-04-23T14:08:02.857Z,22.70
2023-04-23T14:10:29.354Z,22.50
2023-04-23T14:12:55.976Z,22.40
2023-04-23T14:15:22.960Z,22.30
2023-04-23T14:17:49.570Z,22.30
2023-04-23T14:20:18.952Z,22.10
2023-04-23T14:22:54.890Z,21.90
2023-04-23T14:25:39.818Z,21.70
2023-04-23T14:28:44.625Z,21.60
2023-04-23T14:31:11.195Z,21.60
2023-04-23T14:33:37.705Z,21.40
2023-04-23T14:36:04.455Z,21.30
2023-04-23T14:38:30.967Z,21.30
2023-04-23T14:40:57.459Z,21.40
2023-04-23T14:43:23.991Z,21.30
2023-04-23T14:45:51.240Z,21.50
2023-04-23T14:48:17.746Z,21.70
2023-04-23T14:50:44.276Z,21.70
2023-04-23T14:53:10.804Z,21.70
2023-04-23T14:55:39.089Z,21.70
2023-04-23T14:58:05.668Z,21.70
2023-04-23T15:00:32.744Z,21.70
2023-04-23T15:03:00.544Z,21.60
2023-04-23T15:05:27.124Z,21.30
2023-04-23T15:07:53.632Z,21.30
2023-04-23T15:10:23.016Z,21.20
2023-04-23T15:13:06.433Z,21.30
2023-04-23T15:15:49.180Z,21.40
2023-04-23T15:18:16.357Z,21.30
2023-04-23T15:20:44.043Z,21.10
2023-04-23T15:23:10.673Z,21.00
2023-04-23T15:25:38.566Z,20.90
2023-04-23T15:28:06.334Z,20.90
2023-04-23T15:30:32.850Z,20.90
2023-04-23T15:32:59.432Z,20.80
2023-04-23T15:35:27.200Z,20.70
2023-04-23T15:37:54.233Z,20.70
2023-04-23T15:40:20.766Z,20.80
2023-04-23T15:42:49.083Z,20.90
2023-04-23T15:45:16.251Z,20.90
2023-04-23T15:47:42.798Z,20.80
2023-04-23T15:50:10.485Z,20.70
2023-04-23T15:52:37.637Z,20.70
2023-04-23T15:55:05.341Z,20.70
2023-04-23T15:57:31.971Z,20.60
2023-04-23T15:59:58.592Z,20.60
2023-04-23T16:02:25.179Z,20.50
2023-04-23T16:04:51.859Z,20.30
2023-04-23T16:07:18.400Z,20.20
2023-04-23T16:09:44.889Z,20.00
2023-04-23T16:12:12.626Z,19.90
2023-04-23T16:14:39.545Z,19.70
2023-04-23T16:17:06.105Z,19.70
2023-04-23T16:19:32.744Z,19.50
2023-04-23T16:21:59.302Z,19.30
2023-04-23T16:24:25.784Z,19.20
2023-04-23T16:26:52.344Z,19.10
2023-04-23T16:29:22.479Z,18.70
2023-04-23T16:31:49.671Z,17.70
2023-04-23T16:34:16.229Z,17.00
2023-04-23T16:36:42.869Z,16.50
2023-04-23T16:39:10.335Z,15.90
2023-04-23T16:41:36.840Z,15.30
2023-04-23T16:44:03.374Z,15.20
2023-04-23T16:46:30.606Z,14.90
2023-04-23T16:48:57.097Z,14.80
2023-04-23T16:51:24.325Z,14.90
2023-04-23T16:53:50.914Z,14.80
2023-04-23T16:56:17.473Z,14.80
2023-04-23T16:58:44.007Z,14.80
2023-04-23T17:01:10.521Z,14.90
2023-04-23T17:03:38.356Z,14.80
2023-04-23T17:06:11.247Z,14.70
2023-04-23T17:08:38.547Z,14.70
2023-04-23T17:11:08.919Z,14.50
2023-04-23T17:13:35.559Z,14.50
2023-04-23T17:16:02.437Z,14.60
2023-04-23T17:18:29.135Z,14.50
2023-04-23T17:20:55.990Z,14.40
2023-04-23T17:23:22.475Z,14.30
2023-04-23T17:25:49.501Z,14.30
2023-04-23T17:28:17.816Z,14.20
2023-04-23T17:30:45.534Z,14.40
2023-04-23T17:33:12.097Z,14.50
2023-04-23T17:35:38.656Z,14.60
2023-04-23T17:38:05.279Z,14.60
2023-04-23T17:40:31.843Z,14.60
2023-04-23T17:42:58.318Z,14.50
2023-04-23T17:45:24.772Z,14.50
2023-04-23T17:47:51.318Z,14.60
2023-04-23T17:50:18.014Z,14.70
2023-04-23T17:52:44.894Z,14.70
2023-04-23T17:55:11.917Z,14.80
2023-04-23T17:57:38.453Z,14.70
2023-04-23T18:00:09.293Z,14.80
2023-04-23T18:02:39.505Z,14.70
2023-04-23T18:05:12.086Z,14.60
2023-04-23T18:07:40.570Z,14.50
2023-04-23T18:10:08.678Z,14.40
2023-04-23T18:12:35.328Z,14.40
2023-04-23T18:15:02.054Z,14.50
2023-04-23T18:17:28.549Z,14.50
2023-04-23T18:19:55.058Z,14.40
2023-04-23T18:22:21.685Z,14.40
2023-04-23T18:24:49.652Z,14.20
2023-04-23T18:27:16.728Z,14.10
2023-04-23T18:29:43.485Z,14.10
2023-04-23T18:32:12.319Z,14.00
2023-04-23T18:34:42.600Z,14.10
2023-04-23T18:37:15.615Z,14.00
2023-04-23T18:39:42.089Z,13.90
2023-04-23T18:42:08.562Z,13.80
2023-04-23T18:44:35.664Z,13.80
2023-04-23T18:47:02.654Z,13.80
2023-04-23T18:49:54.921Z,13.80
2023-04-23T18:52:21.680Z,13.70
2023-04-23T18:54:48.161Z,13.70
2023-04-23T18:57:14.660Z,13.70
2023-04-23T18:59:41.470Z,13.70
2023-04-23T19:02:08.575Z,13.70
2023-04-23T19:04:35.577Z,13.80
2023-04-23T19:07:02.388Z,13.80
2023-04-23T19:09:28.985Z,13.70
2023-04-23T19:11:55.511Z,13.70
2023-04-23T19:14:21.989Z,13.60
2023-04-23T19:16:50.212Z,13.70
2023-04-23T19:19:16.988Z,13.70
2023-04-23T19:21:43.531Z,13.60
2023-04-23T19:24:10.234Z,13.60
2023-04-23T19:26:36.738Z,13.70
2023-04-23T19:29:03.224Z,13.70
2023-04-23T19:31:30.023Z,13.60
2023-04-23T19:33:56.797Z,13.60
2023-04-23T19:36:23.290Z,13.50
2023-04-23T19:38:49.779Z,13.50
2023-04-23T19:41:16.264Z,13.60
2023-04-23T19:43:42.796Z,13.70
2023-04-23T19:46:09.358Z,13.70
2023-04-23T19:48:35.859Z,13.60
2023-04-23T19:51:02.338Z,13.50
2023-04-23T19:53:28.893Z,13.40
2023-04-23T19:55:55.493Z,13.30
2023-04-23T19:58:21.991Z,13.30
2023-04-23T20:00:48.553Z,13.40
2023-04-23T20:03:15.294Z,13.30
2023-04-23T20:05:43.974Z,13.30
2023-04-23T20:08:25.163Z,13.20
2023-04-23T20:10:52.861Z,13.10
2023-04-23T20:13:19.919Z,13.20
2023-04-23T20:15:50.154Z,13.10
2023-04-23T20:18:17.623Z,13.00
2023-04-23T20:20:44.104Z,12.90
2023-04-23T20:23:10.595Z,12.90
2023-04-23T20:25:37.145Z,12.90
2023-04-23T20:28:04.362Z,12.90
2023-04-23T20:30:30.865Z,12.90
2023-04-23T20:32:57.465Z,12.80
2023-04-23T20:35:24.030Z,12.70
2023-04-23T20:37:53.726Z,12.70
2023-04-23T20:40:20.221Z,12.60
2023-04-23T20:42:50.753Z,12.40
2023-04-23T20:45:18.805Z,12.20
2023-04-23T20:47:46.281Z,12.10
2023-04-23T20:50:13.429Z,12.00
2023-04-23T20:52:39.937Z,12.00
2023-04-23T20:55:07.509Z,12.10
2023-04-23T20:57:36.163Z,12.10
2023-04-23T21:00:06.861Z,12.20
2023-04-23T21:02:35.286Z,12.10
2023-04-23T21:05:01.841Z,12.10
2023-04-23T21:07:28.599Z,12.20
2023-04-23T21:09:55.108Z,12.30
2023-04-23T21:12:22.156Z,12.20
2023-04-23T21:14:51.778Z,12.10
2023-04-23T21:17:18.280Z,11.80
2023-04-23T21:19:44.971Z,11.50
2023-04-23T21:22:11.550Z,11.30
2023-04-23T21:24:38.043Z,11.20
2023-04-23T21:27:04.584Z,11.40
2023-04-23T21:29:32.262Z,11.50
2023-04-23T21:31:58.778Z,11.50
2023-04-23T21:34:25.266Z,11.50
2023-04-23T21:36:51.734Z,11.40
2023-04-23T21:39:18.192Z,11.40
2023-04-23T21:41:45.946Z,11.20
2023-04-23T21:44:12.407Z,11.10
2023-04-23T21:46:38.919Z,11.10
2023-04-23T21:49:06.045Z,11.00
2023-04-23T21:51:36.075Z,11.00
2023-04-23T21:54:04.719Z,10.80
2023-04-23T21:56:31.344Z,10.90
2023-04-23T21:58:57.833Z,11.10
2023-04-23T22:01:24.415Z,11.00
2023-04-23T22:03:51.871Z,10.90
2023-04-23T22:06:18.509Z,10.80
2023-04-23T22:08:47.105Z,10.80
2023-04-23T22:11:14.035Z,10.80
2023-04-23T22:13:40.510Z,10.80
2023-04-23T22:16:20.338Z,10.80
2023-04-23T22:18:51.373Z,10.80
2023-04-23T22:21:17.829Z,10.60
2023-04-23T22:23:44.317Z,10.60
2023-04-23T22:26:10.835Z,10.60
2023-04-23T22:28:37.333Z,10.40
2023-04-23T22:31:04.033Z,10.40
2023-04-23T22:33:30.510Z,10.40
2023-04-23T22:35:58.347Z,10.40
2023-04-23T22:38:24.866Z,10.50
2023-04-23T22:40:51.742Z,10.60
2023-04-23T22:43:18.264Z,10.50
2023-04-23T22:45:44.810Z,10.60
2023-04-23T22:48:11.292Z,10.50
2023-04-23T22:50:39.256Z,10.50
2023-04-23T22:53:06.225Z,10.40
2023-04-23T22:55:32.706Z,10.50
2023-04-23T22:57:59.342Z,10.60
2023-04-23T23:00:25.844Z,10.60
2023-04-23T23:02:52.358Z,10.60
2023-04-23T23:05:18.949Z,10.60
2023-04-23T23:07:45.437Z,10.60
2023-04-23T23:10:11.892Z,10.70
2023-04-23T23:12:38.579Z,10.70
2023-04-23T23:15:07.137Z,10.70
2023-04-23T23:17:33.705Z,10.70
2023-04-23T23:20:00.223Z,10.70
2023-04-23T23:22:26.723Z,10.70
2023-04-23T23:24:53.308Z,10.80
2023-04-23T23:27:19.809Z,10.80
2023-04-23T23:29:46.268Z,10.70
2023-04-23T23:32:12.771Z,10.70
2023-04-23T23:34:39.332Z,10.70
2023-04-23T23:37:06.003Z,10.70
2023-04-23T23:39:32.488Z,10.60
2023-04-23T23:41:59.873Z,10.60
2023-04-23T23:44:26.480Z,10.60
2023-04-23T23:46:53.028Z,10.50
2023-04-23T23:49:20.047Z,10.50
2023-04-23T23:51:46.905Z,10.50
2023-04-23T23:54:13.686Z,10.40
2023-04-23T23:56:40.244Z,10.40
2023-04-23T23:59:06.779Z,10.40
